Time;durP1;ratioP1;P1;durP2;ratioP2;P2;SDS_P1;SDS_P2;PMS_P1;PMS_P2;Temp;Humidity;BMP_temperature;BMP_pressure;BME280_temperature;BME280_humidity;BME280_pressure;Samples;Min_cycle;Max_cycle;Signal;HPM_P1;HPM_P2
2024/03/17 00:03:05;;;;;;;10.95;4.43;;;;;;;5.46;76.99;101230.59;10216530;28;20062;-81
2024/03/17 00:08:08;;;;;;;;;;;;;;;5.40;77.21;101231.75;10211460;28;20423;-80
2024/03/17 00:13:11;;;;;;;14.13;4.45;;;;;;;5.40;77.51;101233.53;10214251;28;19926;-82
2024/03/17 00:18:14;;;;;;;15.07;4.90;;;;;;;5.34;77.88;101240.00;10194828;28;20137;-82
2024/03/17 00:23:16;;;;;;;13.00;4.63;;;;;;;5.28;78.07;101241.13;10210809;28;20492;-82
2024/03/17 00:28:20;;;;;;;10.77;5.55;;;;;;;5.16;78.44;101243.50;10213766;28;20052;-82
2024/03/17 00:33:24;;;;;;;8.95;4.13;;;;;;;5.14;78.73;101237.38;10212338;28;20074;-81
2024/03/17 00:38:26;;;;;;;7.10;4.30;;;;;;;5.10;79.36;101236.66;10193227;28;20054;-81
2024/03/17 00:43:29;;;;;;;;;;;;;;;5.09;79.60;101234.91;10196658;28;20951;-82
2024/03/17 00:48:32;;;;;;;13.00;4.80;;;;;;;5.10;79.51;101228.66;10209881;28;19930;-82
2024/03/17 00:53:34;;;;;;;9.68;5.10;;;;;;;4.99;79.39;101226.47;10207656;28;20118;-81
2024/03/17 00:58:38;;;;;;;8.50;4.40;;;;;;;4.95;79.90;101222.19;10193750;28;20259;-82
2024/03/17 01:03:40;;;;;;;10.43;4.95;;;;;;;4.91;80.04;101219.72;10194062;28;20055;-81
2024/03/17 01:08:43;;;;;;;11.43;5.30;;;;;;;4.88;80.13;101206.53;10193796;28;20241;-82
2024/03/17 01:13:47;;;;;;;10.90;5.22;;;;;;;4.83;80.33;101198.78;10211430;28;20292;-82
2024/03/17 01:18:49;;;;;;;10.15;4.88;;;;;;;4.77;80.35;101212.31;10211234;28;20050;-82
2024/03/17 01:23:51;;;;;;;9.18;4.60;;;;;;;4.62;80.72;101211.22;10194897;28;20202;-82
2024/03/17 01:28:55;;;;;;;7.32;4.97;;;;;;;4.58;81.00;101204.28;10190655;28;20134;-82
2024/03/17 01:33:57;;;;;;;15.40;5.60;;;;;;;4.52;81.11;101194.75;10193492;28;20078;-82
2024/03/17 01:38:59;;;;;;;10.02;5.05;;;;;;;4.47;81.20;101201.22;10210639;28;20185;-82
2024/03/17 01:44:02;;;;;;;;;;;;;;;4.43;81.73;101187.19;10209923;28;20050;-82
2024/03/17 01:49:07;;;;;;;10.93;4.82;;;;;;;4.43;82.70;101187.19;10190030;28;20053;-81
2024/03/17 01:54:10;;;;;;;12.27;5.60;;;;;;;4.27;83.94;101180.78;10208986;28;20066;-82
2024/03/17 01:59:14;;;;;;;;;;;;;;;4.16;84.82;101181.22;10201497;28;20418;-82
2024/03/17 02:04:17;;;;;;;11.88;5.38;;;;;;;4.18;84.84;101177.56;10215373;28;20463;-81
2024/03/17 02:09:21;;;;;;;9.32;5.32;;;;;;;4.21;84.97;101181.03;10211072;28;21284;-80
2024/03/17 02:14:25;;;;;;;14.80;6.00;;;;;;;4.25;84.51;101169.34;10199439;28;20062;-83
2024/03/17 02:19:27;;;;;;;11.40;5.40;;;;;;;4.30;84.77;101173.53;10209521;28;20199;-82
2024/03/17 02:24:31;;;;;;;10.80;5.68;;;;;;;4.24;83.90;101165.81;10207726;28;20581;-82
2024/03/17 02:29:33;;;;;;;12.15;5.72;;;;;;;4.07;82.73;101170.97;10207777;28;20464;-82
2024/03/17 02:34:35;;;;;;;11.45;4.72;;;;;;;3.88;82.72;101176.19;10188356;28;20052;-80
2024/03/17 02:39:39;;;;;;;10.95;6.10;;;;;;;3.63;83.03;101176.31;10213543;28;20770;-81
2024/03/17 02:44:41;;;;;;;11.85;6.40;;;;;;;3.65;84.92;101179.78;10202873;28;20078;-80
2024/03/17 02:49:44;;;;;;;14.27;6.75;;;;;;;3.79;85.52;101176.56;10202434;28;20055;-82
2024/03/17 02:54:47;;;;;;;15.07;7.70;;;;;;;3.84;85.32;101175.44;10209193;28;20102;-81
2024/03/17 02:59:49;;;;;;;13.95;7.47;;;;;;;3.84;85.04;101169.25;10212951;28;20158;-81
2024/03/17 03:04:51;;;;;;;13.02;7.45;;;;;;;3.84;84.69;101177.22;10216540;28;20209;-83
2024/03/17 03:09:55;;;;;;;;;;;;;;;3.83;84.65;101167.53;10214677;28;20051;-82
2024/03/17 03:14:57;;;;;;;21.00;8.05;;;;;;;3.77;84.16;101175.75;10201577;28;20603;-83
2024/03/17 03:20:01;;;;;;;14.80;7.95;;;;;;;3.69;84.09;101165.41;10214510;28;20137;-83
2024/03/17 03:25:05;;;;;;;10.73;7.53;;;;;;;3.69;84.51;101165.41;10212208;28;20051;-83
2024/03/17 03:30:08;;;;;;;12.80;7.70;;;;;;;3.69;84.65;101166.28;10212539;28;20051;-81
2024/03/17 03:35:11;;;;;;;13.48;7.90;;;;;;;3.78;85.04;101153.56;10213070;28;20122;-81
2024/03/17 03:40:17;;;;;;;20.35;7.68;;;;;;;3.81;85.09;101148.97;10192324;28;21294;-81
2024/03/17 03:45:20;;;;;;;10.75;6.65;;;;;;;3.78;85.26;101158.88;10196097;28;20055;-83
2024/03/17 03:50:23;;;;;;;14.60;6.95;;;;;;;3.81;85.51;101159.59;10192909;28;20106;-81
2024/03/17 03:55:26;;;;;;;15.52;6.72;;;;;;;3.83;85.47;101160.41;10215994;28;20051;-81
2024/03/17 04:00:31;;;;;;;10.40;6.28;;;;;;;3.81;85.87;101170.22;10197352;28;20047;-80
2024/03/17 04:05:34;;;;;;;11.50;6.47;;;;;;;3.75;86.13;101169.63;10212373;28;20930;-81
2024/03/17 04:10:37;;;;;;;11.85;5.22;;;;;;;3.73;86.21;101177.69;10208910;28;20058;-81
2024/03/17 04:15:39;;;;;;;11.57;5.78;;;;;;;3.71;86.16;101176.88;10204420;28;20055;-81
2024/03/17 04:20:41;;;;;;;9.38;5.70;;;;;;;3.71;86.22;101163.56;10211946;28;20102;-80
2024/03/17 04:25:45;;;;;;;;;;;;;;;3.79;86.11;101171.25;10220378;28;20079;-81
2024/03/17 04:30:47;;;;;;;7.72;5.13;;;;;;;3.87;86.22;101170.00;10214919;28;20009;-81
2024/03/17 04:35:49;;;;;;;10.13;5.32;;;;;;;3.83;85.75;101173.69;10213301;28;20285;-80
2024/03/17 04:40:59;;;;;;;13.57;5.68;;;;;;;3.81;85.55;101178.19;10206513;28;20201;-81
2024/03/17 04:46:03;;;;;;;12.57;6.20;;;;;;;3.76;85.50;101174.91;10196726;28;20053;-81
2024/03/17 04:51:06;;;;;;;10.73;5.65;;;;;;;3.64;85.74;101170.91;10213247;28;20050;-81
2024/03/17 04:56:09;;;;;;;;;;;;;;;3.58;86.03;101181.78;10197266;28;20660;-82
2024/03/17 05:01:12;;;;;;;14.07;5.90;;;;;;;3.59;86.20;101188.81;10208438;28;20021;-80
2024/03/17 05:06:14;;;;;;;10.27;5.75;;;;;;;3.58;86.21;101184.44;10209997;28;20658;-82
2024/03/17 05:11:19;;;;;;;13.88;5.93;;;;;;;3.46;86.50;101191.09;10207612;28;20275;-82
2024/03/17 05:16:23;;;;;;;14.63;6.07;;;;;;;3.46;86.85;101199.06;10209317;28;20145;-81
2024/03/17 05:21:26;;;;;;;14.98;6.35;;;;;;;3.37;87.20;101198.56;10209991;28;20089;-81
2024/03/17 05:26:30;;;;;;;11.18;6.63;;;;;;;3.36;87.69;101202.13;10187974;28;20058;-80
2024/03/17 05:31:32;;;;;;;11.35;7.40;;;;;;;3.40;87.67;101199.31;10209973;28;20061;-81
2024/03/17 05:36:35;;;;;;;14.25;6.65;;;;;;;3.51;87.39;101196.22;10207016;28;20059;-81
2024/03/17 05:41:38;;;;;;;15.50;7.30;;;;;;;3.49;87.16;101201.63;10210563;28;20181;-81
2024/03/17 05:46:40;;;;;;;17.33;6.75;;;;;;;3.53;87.00;101196.19;10213441;28;20170;-83
2024/03/17 05:51:42;;;;;;;11.77;6.40;;;;;;;3.51;86.98;101196.22;10228467;28;20062;-80
2024/03/17 05:56:46;;;;;;;11.98;6.63;;;;;;;3.40;86.73;101193.13;10216890;28;20632;-82
2024/03/17 06:01:48;;;;;;;11.95;6.57;;;;;;;3.35;87.50;101187.13;10188647;28;20152;-82
2024/03/17 06:06:50;;;;;;;12.07;7.57;;;;;;;3.49;87.52;101188.34;10211481;28;20111;-82
2024/03/17 06:11:54;;;;;;;14.13;7.40;;;;;;;3.55;87.10;101175.72;10194845;28;20118;-83
2024/03/17 06:16:56;;;;;;;14.85;7.00;;;;;;;3.65;87.05;101171.81;10221029;28;20142;-81
2024/03/17 06:21:58;;;;;;;11.48;6.80;;;;;;;3.75;86.67;101169.63;10204177;28;20071;-83
2024/03/17 06:27:01;;;;;;;12.02;6.78;;;;;;;3.89;86.23;101169.94;10194720;28;20057;-81
2024/03/17 06:32:04;;;;;;;13.80;6.45;;;;;;;4.14;85.56;101164.47;10219929;28;20094;-81
2024/03/17 06:37:06;;;;;;;13.20;6.63;;;;;;;4.26;84.78;101171.94;10202688;28;20130;-83
2024/03/17 06:42:10;;;;;;;10.40;6.20;;;;;;;4.44;83.95;101167.63;10197704;28;20055;-82
2024/03/17 06:47:13;;;;;;;14.20;6.40;;;;;;;4.71;82.75;101178.00;10211447;28;20587;-82
2024/03/17 06:52:15;;;;;;;12.63;5.32;;;;;;;4.96;84.69;101175.09;10217208;28;20185;-81
2024/03/17 06:57:19;;;;;;;22.00;11.15;;;;;;;5.54;81.25;101174.25;10217338;28;20178;-82
2024/03/17 07:02:21;;;;;;;15.60;7.03;;;;;;;5.69;78.44;101173.53;10220035;28;20123;-81
2024/03/17 07:07:23;;;;;;;13.18;5.85;;;;;;;5.81;76.91;101177.41;10198662;28;20703;-82
2024/03/17 07:12:27;;;;;;;11.43;6.47;;;;;;;6.06;75.93;101195.72;10198596;28;20055;-82
2024/03/17 07:17:29;;;;;;;12.18;5.57;;;;;;;6.36;74.56;101193.31;10202964;28;20190;-81
2024/03/17 07:22:31;;;;;;;7.32;5.30;;;;;;;6.93;73.43;101180.59;10218945;28;21384;-81
2024/03/17 07:27:37;;;;;;;8.55;5.07;;;;;;;7.34;70.71;101168.63;10237934;28;20051;-82
2024/03/17 07:32:39;;;;;;;12.60;6.88;;;;;;;7.69;70.90;101162.19;10225968;28;20056;-81
2024/03/17 07:37:41;;;;;;;9.02;5.45;;;;;;;7.85;69.03;101166.66;10235836;28;20051;-82
2024/03/17 07:42:47;;;;;;;15.40;7.22;;;;;;;7.73;68.75;101163.75;10217255;28;20106;-85
2024/03/17 07:47:51;;;;;;;13.05;6.55;;;;;;;7.85;68.49;101154.16;10217246;28;20063;-82
2024/03/17 07:52:54;;;;;;;13.30;7.35;;;;;;;8.26;67.74;101144.66;10210056;28;20047;-83
2024/03/17 07:57:57;;;;;;;12.38;5.57;;;;;;;8.64;66.31;101142.38;10201769;28;20095;-82
2024/03/17 08:03:00;;;;;;;15.88;7.60;;;;;;;8.82;64.67;101148.41;10218969;28;20142;-81
2024/03/17 08:08:02;;;;;;;12.63;7.57;;;;;;;9.06;63.79;101149.59;10197430;28;21281;-82
2024/03/17 08:13:08;;;;;;;17.52;6.55;;;;;;;9.48;63.04;101155.00;10212648;28;20051;-82
2024/03/17 08:18:11;;;;;;;15.00;6.28;;;;;;;9.69;61.33;101153.63;10194703;28;20056;-82
2024/03/17 08:23:13;;;;;;;10.00;5.50;;;;;;;10.04;59.78;101147.78;10195263;28;20098;-81
2024/03/17 08:28:17;;;;;;;14.18;5.80;;;;;;;10.28;58.40;101153.31;10202212;28;20478;-81
2024/03/17 08:33:19;;;;;;;7.10;4.95;;;;;;;10.46;58.08;101150.34;10217890;28;20070;-82
2024/03/17 08:38:23;;;;;;;9.45;6.00;;;;;;;10.85;56.39;101149.41;10218706;28;20058;-82
2024/03/17 08:43:26;;;;;;;10.50;5.53;;;;;;;11.05;55.78;101148.88;10198935;28;20102;-81
2024/03/17 08:48:30;;;;;;;10.10;6.28;;;;;;;11.10;52.83;101140.47;10214416;28;20110;-81
2024/03/17 08:53:33;;;;;;;12.07;7.53;;;;;;;11.31;52.96;101139.94;10196324;28;20078;-83
2024/03/17 08:58:36;;;;;;;13.52;7.63;;;;;;;11.52;52.82;101135.69;10216174;28;20046;-83
2024/03/17 09:03:39;;;;;;;13.55;8.32;;;;;;;11.81;51.31;101130.84;10211805;28;20051;-81
2024/03/17 09:08:41;;;;;;;15.20;9.40;;;;;;;12.11;51.15;101141.13;10196115;28;20051;-82
2024/03/17 09:13:45;;;;;;;17.33;8.75;;;;;;;12.14;48.43;101148.97;10211915;28;20098;-82
2024/03/17 09:18:48;;;;;;;14.60;7.82;;;;;;;12.65;50.65;101157.75;10194598;28;20134;-81
2024/03/17 09:23:51;;;;;;;14.02;9.07;;;;;;;13.05;48.94;101153.66;10210281;28;20046;-82
2024/03/17 09:28:54;;;;;;;15.05;8.80;;;;;;;13.43;48.68;101143.47;10216541;28;20066;-79
2024/03/17 09:33:56;;;;;;;13.02;8.82;;;;;;;13.61;47.32;101144.69;10217777;28;20058;-80
2024/03/17 09:39:00;;;;;;;19.85;9.88;;;;;;;13.87;45.82;101139.81;10212927;28;20199;-82
2024/03/17 09:44:11;;;;;;;17.40;9.90;;;;;;;14.30;44.33;101136.22;10224135;28;20073;-83
2024/03/17 09:49:17;;;;;;;18.67;10.63;;;;;;;14.24;43.67;101146.72;10197766;28;20043;-83
2024/03/17 09:54:20;;;;;;;17.90;9.90;;;;;;;14.22;44.98;101137.84;10202195;28;20074;-82
2024/03/17 09:59:23;;;;;;;14.57;9.38;;;;;;;14.35;45.03;101134.00;10202944;28;20055;-83
2024/03/17 10:04:33;;;;;;;14.43;9.75;;;;;;;14.72;43.31;101132.69;10219867;28;20131;-83
2024/03/17 10:09:36;;;;;;;18.25;10.18;;;;;;;15.31;43.01;101121.16;10195239;28;20097;-84
2024/03/17 10:14:40;;;;;;;12.20;5.45;;;;;;;15.73;37.99;101120.16;10198726;28;20070;-83
2024/03/17 10:19:42;;;;;;;13.27;8.25;;;;;;;15.56;38.05;101108.16;10205548;28;20058;-84
2024/03/17 10:24:45;;;;;;;12.27;7.93;;;;;;;15.74;40.01;101105.59;10213319;28;20926;-84
2024/03/17 10:29:49;;;;;;;10.00;7.45;;;;;;;16.02;38.86;101103.94;10217902;28;20043;-85
2024/03/17 10:34:51;;;;;;;13.00;8.32;;;;;;;16.06;38.57;101094.50;10209098;28;20047;-83
2024/03/17 10:39:55;;;;;;;12.32;8.80;;;;;;;16.10;39.59;101082.38;10229838;28;20043;-83
2024/03/17 10:44:59;;;;;;;16.30;9.90;;;;;;;16.12;39.32;101085.78;10217140;28;20082;-83
2024/03/17 10:50:03;;;;;;;16.52;9.98;;;;;;;16.02;38.21;101083.09;10212889;28;20115;-83
2024/03/17 10:55:10;;;;;;;17.38;9.68;;;;;;;16.09;38.00;101088.78;10195527;28;20134;-84
2024/03/17 11:00:17;;;;;;;16.10;10.20;;;;;;;16.61;38.12;101086.59;10205443;28;20115;-84
2024/03/17 11:05:21;;;;;;;14.70;9.23;;;;;;;16.60;37.39;101093.03;10204196;28;20098;-84
2024/03/17 11:10:26;;;;;;;16.25;8.82;;;;;;;17.74;38.10;101090.91;10218493;28;20107;-83
2024/03/17 11:15:45;;;;;;;16.52;9.63;;;;;;;18.79;35.05;101086.59;10219431;28;20071;-84
2024/03/17 11:20:58;;;;;;;14.32;9.65;;;;;;;18.78;34.83;101082.13;10206509;28;20055;-84
2024/03/17 11:26:00;;;;;;;15.13;9.52;;;;;;;18.84;33.96;101086.06;10224814;28;20047;-83
2024/03/17 11:31:08;;;;;;;14.98;9.70;;;;;;;19.35;33.68;101073.38;10220300;28;20097;-84
2024/03/17 11:36:36;;;;;;;13.07;10.05;;;;;;;19.57;33.68;101063.75;10203996;28;20079;-83
2024/03/17 11:41:40;;;;;;;13.95;9.90;;;;;;;19.77;33.00;101059.69;10218727;28;20051;-85
2024/03/17 11:46:43;;;;;;;16.98;10.65;;;;;;;19.40;33.17;101050.06;10235175;28;20055;-84
2024/03/17 11:51:46;;;;;;;16.27;10.98;;;;;;;19.50;33.62;101051.78;10211681;28;20168;-84
2024/03/17 11:56:50;;;;;;;13.43;10.05;;;;;;;19.43;34.01;101051.59;10207274;28;20089;-83
2024/03/17 12:01:54;;;;;;;15.00;10.10;;;;;;;17.77;35.32;101058.03;10215435;28;20118;-83
2024/03/17 12:06:57;;;;;;;16.40;10.00;;;;;;;17.93;35.38;101050.00;10207469;28;20090;-83
2024/03/17 12:12:00;;;;;;;14.85;10.15;;;;;;;18.54;35.52;101047.44;10194016;28;20044;-84
2024/03/17 12:17:07;;;;;;;14.65;10.85;;;;;;;17.79;35.06;101039.69;10204950;28;20055;-84
2024/03/17 12:22:09;;;;;;;15.82;10.95;;;;;;;17.89;36.38;101029.59;10217277;28;20113;-84
2024/03/17 12:27:18;;;;;;;15.65;10.52;;;;;;;18.95;34.33;101025.91;10210894;28;20118;-84
2024/03/17 12:32:23;;;;;;;14.38;10.80;;;;;;;18.29;35.04;101028.25;10205987;28;20470;-85
2024/03/17 12:37:28;;;;;;;15.43;10.63;;;;;;;18.09;36.55;101021.28;10218354;28;20055;-84
2024/03/17 12:42:32;;;;;;;16.13;11.55;;;;;;;18.37;35.57;101011.13;10200161;28;20145;-84
2024/03/17 12:47:36;;;;;;;16.45;11.77;;;;;;;18.75;35.49;101007.06;10196858;28;20062;-83
2024/03/17 12:52:39;;;;;;;15.38;10.88;;;;;;;19.18;33.99;101018.84;10206892;28;20062;-84
2024/03/17 13:03:02;;;;;;;17.00;11.93;;;;;;;20.63;32.10;101005.63;10206719;28;20043;-85
2024/03/17 13:08:05;;;;;;;19.33;12.35;;;;;;;19.73;32.46;101011.16;10204603;28;20585;-85
2024/03/17 13:13:11;;;;;;;17.80;12.68;;;;;;;18.93;33.89;100998.88;10214012;28;20078;-85
2024/03/17 13:18:19;;;;;;;11.27;9.90;;;;;;;17.59;34.37;101006.41;10217054;28;20051;-84
2024/03/17 13:23:24;;;;;;;15.55;10.18;;;;;;;16.46;35.73;100994.03;10207121;28;20079;-84
2024/03/17 13:28:26;;;;;;;13.48;11.18;;;;;;;15.78;36.62;100983.28;10201912;28;20125;-85
2024/03/17 13:33:29;;;;;;;15.32;11.27;;;;;;;15.58;37.50;100976.19;10199611;28;20054;-85
2024/03/17 13:38:31;;;;;;;14.05;9.65;;;;;;;15.32;36.05;100965.00;10191861;28;20134;-85
2024/03/17 13:43:33;;;;;;;14.77;9.05;;;;;;;14.87;38.26;100960.97;10222270;28;20063;-83
2024/03/17 13:48:37;;;;;;;14.13;9.60;;;;;;;14.64;38.12;100952.19;10210145;28;20712;-85
2024/03/17 13:53:39;;;;;;;12.38;8.43;;;;;;;14.78;37.30;100948.25;10188395;28;20078;-85
2024/03/17 13:58:41;;;;;;;;;;;;;;;14.69;39.95;100951.78;10201980;28;20051;-84
2024/03/17 14:03:45;;;;;;;20.83;12.10;;;;;;;14.66;40.50;100935.84;10210878;28;20017;-83
2024/03/17 14:08:47;;;;;;;8.98;7.07;;;;;;;14.53;35.96;100928.81;10228486;28;20047;-84
2024/03/17 14:13:50;;;;;;;8.15;6.60;;;;;;;14.61;35.66;100925.44;10231787;28;20515;-84
2024/03/17 14:18:53;;;;;;;10.02;6.10;;;;;;;14.26;36.28;100929.41;10205982;28;20715;-85
2024/03/17 14:23:56;;;;;;;10.73;7.07;;;;;;;14.31;37.39;100921.72;10210913;28;20105;-85
2024/03/17 14:28:59;;;;;;;;;;;;;;;14.29;36.75;100914.75;10209969;28;20094;-85
2024/03/17 14:34:03;;;;;;;10.07;6.85;;;;;;;14.19;37.37;100905.75;10217749;28;20025;-85
2024/03/17 14:39:05;;;;;;;14.23;8.05;;;;;;;14.25;37.76;100895.25;10196757;28;20708;-85
2024/03/17 14:44:08;;;;;;;12.10;7.30;;;;;;;14.06;38.51;100897.88;10205780;28;20067;-86
2024/03/17 14:49:11;;;;;;;10.75;7.07;;;;;;;13.99;39.15;100889.47;10199398;28;20130;-85
2024/03/17 14:54:13;;;;;;;9.85;7.13;;;;;;;13.96;37.90;100886.16;10216738;28;20054;-85
2024/03/17 14:59:18;;;;;;;8.20;6.70;;;;;;;13.89;37.50;100884.00;10216852;28;21321;-85
2024/03/17 15:04:22;;;;;;;10.35;6.95;;;;;;;13.79;38.68;100872.28;10200013;28;20126;-85
2024/03/17 15:09:24;;;;;;;11.63;8.60;;;;;;;13.78;39.98;100873.28;10225563;28;20074;-84
2024/03/17 15:14:26;;;;;;;18.85;11.75;;;;;;;13.49;42.54;100868.56;10203080;28;20071;-85
2024/03/17 15:19:29;;;;;;;18.65;12.93;;;;;;;13.41;43.54;100862.97;10199180;28;20081;-85
2024/03/17 15:24:31;;;;;;;19.27;13.02;;;;;;;13.35;44.68;100852.63;10215719;28;20051;-85
2024/03/17 15:29:34;;;;;;;23.17;15.15;;;;;;;13.14;45.12;100852.66;10208705;28;20066;-84
2024/03/17 15:34:37;;;;;;;18.55;12.82;;;;;;;12.96;45.66;100862.28;10207434;28;21519;-84
2024/03/17 15:39:39;;;;;;;21.58;14.15;;;;;;;12.75;45.96;100856.81;10223717;28;20058;-82
2024/03/17 15:44:43;;;;;;;20.25;13.65;;;;;;;12.51;46.45;100848.94;10209036;28;20051;-84
2024/03/17 15:49:47;;;;;;;20.27;12.95;;;;;;;12.39;46.94;100838.16;10239074;28;20051;-84
2024/03/17 15:54:49;;;;;;;18.08;13.07;;;;;;;12.45;47.42;100838.63;10210901;28;20051;-83
2024/03/17 15:59:53;;;;;;;18.38;12.68;;;;;;;12.38;47.56;100827.53;10196109;28;20125;-84
2024/03/17 16:04:56;;;;;;;18.00;12.82;;;;;;;12.23;48.36;100826.91;10196457;28;20129;-83
2024/03/17 16:09:58;;;;;;;16.33;11.63;;;;;;;12.21;47.86;100820.78;10198287;28;20153;-82
2024/03/17 16:15:01;;;;;;;19.30;12.68;;;;;;;12.09;47.77;100813.69;10211677;28;20078;-85
2024/03/17 16:20:09;;;;;;;16.02;11.10;;;;;;;12.13;47.97;100810.63;10214200;28;20047;-84
2024/03/17 16:25:11;;;;;;;17.52;11.82;;;;;;;11.99;48.54;100818.13;10209396;28;20083;-83
2024/03/17 16:30:14;;;;;;;17.02;10.20;;;;;;;11.72;49.22;100814.78;10223411;28;20059;-84
2024/03/17 16:35:17;;;;;;;15.88;10.75;;;;;;;11.60;48.85;100823.84;10206960;28;20075;-83
2024/03/17 16:40:20;;;;;;;18.80;10.63;;;;;;;11.50;48.96;100820.16;10229239;28;20542;-82
2024/03/17 16:45:27;;;;;;;18.83;10.63;;;;;;;11.36;49.35;100826.63;10204762;28;20134;-82
2024/03/17 16:50:32;;;;;;;14.77;11.13;;;;;;;11.47;49.74;100815.88;10214224;28;21604;-82
2024/03/17 16:55:34;;;;;;;18.02;12.10;;;;;;;11.40;50.12;100808.41;10213101;28;20047;-83
2024/03/17 17:00:36;;;;;;;18.23;12.82;;;;;;;11.27;50.35;100809.34;10204921;28;20079;-81
2024/03/17 17:05:40;;;;;;;16.77;10.80;;;;;;;11.26;50.34;100822.91;10202935;28;20687;-83
2024/03/17 17:10:42;;;;;;;18.73;10.35;;;;;;;11.20;50.47;100820.69;10197417;28;20066;-83
2024/03/17 17:15:44;;;;;;;14.65;10.93;;;;;;;11.13;50.84;100814.06;10220780;28;20050;-83
2024/03/17 17:20:47;;;;;;;;;;;;;;;11.09;51.25;100810.72;10200723;28;20050;-83
2024/03/17 17:25:52;;;;;;;19.17;12.40;;;;;;;10.92;51.59;100813.84;10211535;28;20357;-84
2024/03/17 17:30:55;;;;;;;17.30;10.77;;;;;;;10.93;51.40;100810.19;10196405;28;20051;-84
2024/03/17 17:35:58;;;;;;;16.33;11.00;;;;;;;10.92;51.98;100808.47;10205489;28;20058;-83
2024/03/17 17:41:04;;;;;;;22.27;13.32;;;;;;;10.89;52.06;100808.69;10220454;28;20054;-82
2024/03/17 17:46:07;;;;;;;19.05;11.65;;;;;;;10.77;52.60;100803.28;10213346;28;20404;-83
2024/03/17 17:51:14;;;;;;;16.45;11.68;;;;;;;10.76;52.95;100806.94;10215931;28;20055;-83
2024/03/17 17:56:18;;;;;;;24.27;13.65;;;;;;;10.78;52.97;100812.22;10201274;28;20047;-83
2024/03/17 18:01:21;;;;;;;23.15;14.10;;;;;;;10.73;53.01;100807.19;10195044;28;20051;-83
2024/03/17 18:06:24;;;;;;;;;;;;;;;10.63;53.80;100816.03;10215933;28;20549;-83
2024/03/17 18:11:26;;;;;;;21.25;13.32;;;;;;;10.61;53.81;100814.34;10218029;28;20068;-84
2024/03/17 18:16:29;;;;;;;23.25;13.70;;;;;;;10.62;53.70;100812.50;10209230;28;21747;-83
2024/03/17 18:21:32;;;;;;;21.33;13.75;;;;;;;10.49;54.31;100798.25;10206297;28;20085;-84
2024/03/17 18:26:34;;;;;;;21.75;13.18;;;;;;;10.34;54.97;100802.94;10202643;28;20083;-84
2024/03/17 18:37:05;;;;;;;20.75;13.35;;;;;;;10.37;54.47;100808.94;10265427;28;20081;-81
2024/03/17 18:42:10;;;;;;;19.67;12.57;;;;;;;10.38;54.43;100805.28;10266438;29;20145;-80
2024/03/17 18:47:12;;;;;;;20.17;13.13;;;;;;;10.32;54.79;100800.34;10260030;28;20046;-80
2024/03/17 18:52:16;;;;;;;18.55;12.77;;;;;;;10.26;55.04;100794.59;10252676;28;20066;-80
2024/03/17 18:57:18;;;;;;;21.48;12.88;;;;;;;10.25;55.07;100804.44;10246107;28;20051;-81
2024/03/17 19:02:21;;;;;;;20.95;13.27;;;;;;;10.22;54.95;100801.13;10254272;28;20128;-81
2024/03/17 19:07:28;;;;;;;22.42;13.77;;;;;;;10.28;55.21;100800.69;10239657;28;20051;-80
2024/03/17 19:12:30;;;;;;;24.42;14.57;;;;;;;10.25;55.05;100808.97;10217165;28;20264;-80
2024/03/17 19:17:35;;;;;;;22.25;15.20;;;;;;;10.17;55.44;100801.47;10216113;28;20110;-81
2024/03/17 19:22:42;;;;;;;22.80;13.63;;;;;;;10.10;55.93;100808.28;10211375;28;21069;-81
2024/03/17 19:27:45;;;;;;;21.30;13.00;;;;;;;10.09;55.97;100806.53;10203374;28;20528;-81
2024/03/17 19:32:47;;;;;;;21.10;13.05;;;;;;;10.04;55.90;100798.84;10207873;28;20162;-81
2024/03/17 19:37:52;;;;;;;21.08;12.75;;;;;;;10.03;56.23;100794.41;10207124;28;20098;-83
2024/03/17 19:42:54;;;;;;;25.38;13.63;;;;;;;10.07;56.02;100793.25;10189970;28;20421;-82
2024/03/17 19:47:56;;;;;;;25.30;14.27;;;;;;;10.08;55.96;100800.31;10207487;28;20137;-81
2024/03/17 19:53:00;;;;;;;19.50;11.77;;;;;;;10.04;55.73;100796.16;10200687;28;20048;-81
2024/03/17 19:58:03;;;;;;;17.67;11.63;;;;;;;10.01;55.81;100795.50;10181344;28;20051;-83
2024/03/17 20:03:07;;;;;;;21.48;12.20;;;;;;;10.04;55.43;100787.22;10204900;28;20188;-80
2024/03/17 20:08:10;;;;;;;19.35;12.77;;;;;;;10.05;55.52;100780.91;10214008;28;20063;-80
2024/03/17 20:13:13;;;;;;;19.35;12.18;;;;;;;9.89;55.67;100782.00;10235539;28;20054;-80
2024/03/17 20:18:15;;;;;;;21.20;11.48;;;;;;;9.98;55.47;100771.56;10228880;28;20106;-82
2024/03/17 20:23:18;;;;;;;19.70;12.05;;;;;;;9.93;55.52;100777.28;10192855;28;20082;-81
2024/03/17 20:28:20;;;;;;;19.00;11.70;;;;;;;9.88;55.22;100769.56;10217842;28;20785;-81
2024/03/17 20:33:22;;;;;;;;;;;;;;;9.90;55.25;100756.91;10221954;28;20141;-80
2024/03/17 20:38:26;;;;;;;17.73;11.60;;;;;;;9.90;55.44;100756.91;10198459;28;19934;-81
2024/03/17 20:43:28;;;;;;;17.77;11.57;;;;;;;9.75;55.96;100739.19;10191053;28;20130;-80
2024/03/17 20:48:30;;;;;;;23.52;13.73;;;;;;;9.64;56.49;100731.91;10202828;28;20051;-81
2024/03/17 20:53:35;;;;;;;22.33;13.55;;;;;;;9.62;56.62;100724.91;10195432;28;20117;-82
2024/03/17 20:58:37;;;;;;;20.27;12.27;;;;;;;9.47;56.89;100733.09;10212858;28;20473;-81
2024/03/17 21:03:44;;;;;;;24.90;12.82;;;;;;;9.47;57.23;100730.41;10191513;28;20463;-80
2024/03/17 21:08:48;;;;;;;19.08;11.82;;;;;;;9.37;57.37;100731.19;10192940;28;20049;-81
2024/03/17 21:13:50;;;;;;;22.75;12.43;;;;;;;9.37;57.34;100728.50;10207572;28;20078;-80
2024/03/17 21:18:52;;;;;;;;;;;;;;;9.30;57.14;100728.09;10220872;28;20070;-80
2024/03/17 21:23:56;;;;;;;19.83;11.43;;;;;;;9.21;57.12;100724.19;10205696;28;19926;-80
2024/03/17 21:28:58;;;;;;;17.38;11.85;;;;;;;9.23;57.01;100721.41;10204732;28;20062;-80
2024/03/17 21:34:00;;;;;;;17.50;11.45;;;;;;;9.30;56.72;100717.34;10178575;28;20062;-79
2024/03/17 21:39:05;;;;;;;18.63;11.60;;;;;;;9.28;56.96;100708.56;10197265;28;20139;-80
2024/03/17 21:44:07;;;;;;;18.80;11.00;;;;;;;9.32;57.10;100704.69;10189836;28;20168;-80
2024/03/17 21:49:09;;;;;;;18.75;11.35;;;;;;;9.24;57.25;100701.69;10202313;28;20051;-82
2024/03/17 21:54:13;;;;;;;17.13;11.45;;;;;;;9.33;57.30;100695.69;10217101;29;20410;-81
2024/03/17 21:59:17;;;;;;;22.00;11.35;;;;;;;9.31;57.34;100692.25;10270518;28;20040;-80
2024/03/17 22:04:19;;;;;;;18.52;11.32;;;;;;;9.25;57.58;100698.91;10274191;29;20503;-80
2024/03/17 22:09:22;;;;;;;18.38;11.32;;;;;;;9.29;57.43;100692.34;10238055;28;20053;-82
2024/03/17 22:14:24;;;;;;;19.77;11.43;;;;;;;9.21;57.58;100684.00;10239523;28;20474;-80
2024/03/17 22:19:28;;;;;;;20.92;10.77;;;;;;;9.19;57.66;100679.72;10226808;29;20051;-80
2024/03/17 22:24:34;;;;;;;17.20;11.63;;;;;;;9.15;58.02;100670.19;10244098;29;20043;-81
2024/03/17 22:29:36;;;;;;;18.48;11.55;;;;;;;8.95;58.43;100667.06;10233181;29;20518;-82
2024/03/17 22:34:38;;;;;;;16.52;10.93;;;;;;;9.00;58.17;100664.09;10245005;28;20050;-82
2024/03/17 22:39:43;;;;;;;;;;;;;;;9.01;57.89;100663.09;10230455;29;20111;-82
2024/03/17 22:44:46;;;;;;;17.08;10.90;;;;;;;8.96;58.22;100658.06;10230339;28;19922;-82
2024/03/17 22:49:48;;;;;;;16.48;10.90;;;;;;;9.03;57.79;100654.00;10227903;29;20099;-81
2024/03/17 22:54:51;;;;;;;17.13;10.30;;;;;;;8.99;58.02;100649.81;10247926;28;20410;-82
2024/03/17 22:59:54;;;;;;;21.77;11.82;;;;;;;8.96;58.23;100659.88;10250945;29;20041;-82
2024/03/17 23:04:56;;;;;;;18.60;11.23;;;;;;;8.86;58.67;100650.78;10238634;29;20047;-82
2024/03/17 23:09:59;;;;;;;17.27;11.30;;;;;;;8.93;58.74;100644.88;10236349;29;20044;-81
2024/03/17 23:15:01;;;;;;;20.55;11.30;;;;;;;8.77;59.24;100634.38;10249551;29;20031;-82
2024/03/17 23:20:04;;;;;;;20.60;11.55;;;;;;;8.87;59.29;100636.44;10289921;28;20095;-82